Time;durP1;ratioP1;P1;durP2;ratioP2;P2;SDS_P1;SDS_P2;PMS_P1;PMS_P2;Temp;Humidity;BMP_temperature;BMP_pressure;BME280_temperature;BME280_humidity;BME280_pressure;Samples;Min_cycle;Max_cycle;Signal;HPM_P1;HPM_P2
2024/02/14 00:00:36;;;;;;;5.17;3.90;;;5.50;99.90;;;;;;4994498;28;20185;-70
2024/02/14 00:03:03;;;;;;;5.30;3.57;;;5.50;99.90;;;;;;4994371;28;20256;-70
2024/02/14 00:05:28;;;;;;;3.97;3.50;;;5.50;99.90;;;;;;4987195;28;20170;-70
2024/02/14 00:07:54;;;;;;;8.47;4.60;;;5.60;99.90;;;;;;4975203;28;20908;-69
2024/02/14 00:10:20;;;;;;;4.80;4.07;;;5.60;99.90;;;;;;4985830;28;20168;-69
2024/02/14 00:12:46;;;;;;;5.47;4.60;;;5.60;99.90;;;;;;4994141;28;20209;-69
2024/02/14 00:15:12;;;;;;;8.07;4.57;;;5.60;99.90;;;;;;4994270;28;20219;-68
2024/02/14 00:17:37;;;;;;;7.17;3.93;;;5.70;99.90;;;;;;4994191;28;20848;-69
2024/02/14 00:20:03;;;;;;;7.70;4.47;;;5.70;99.90;;;;;;4985737;28;20174;-68
2024/02/14 00:22:30;;;;;;;5.80;4.23;;;5.70;99.90;;;;;;4992059;28;20273;-69
2024/02/14 00:24:55;;;;;;;4.67;4.17;;;5.70;99.90;;;;;;4993206;28;20408;-69
2024/02/14 00:27:21;;;;;;;6.43;4.17;;;5.70;99.90;;;;;;4994609;28;20573;-69
2024/02/14 00:29:46;;;;;;;7.63;4.60;;;5.80;99.90;;;;;;4987884;28;20173;-70
2024/02/14 00:32:15;;;;;;;5.20;4.70;;;5.80;99.90;;;;;;4974482;28;20227;-69
2024/02/14 00:34:41;;;;;;;5.77;4.97;;;5.90;99.90;;;;;;4974556;28;20170;-69
2024/02/14 00:37:06;;;;;;;6.63;4.87;;;5.90;99.90;;;;;;4974303;28;20420;-69
2024/02/14 00:39:32;;;;;;;10.17;4.50;;;6.00;99.90;;;;;;4978736;28;20174;-69
2024/02/14 00:41:58;;;;;;;4.47;4.07;;;6.20;99.90;;;;;;4994268;28;20612;-70
2024/02/14 00:44:23;;;;;;;5.10;4.60;;;6.30;99.90;;;;;;4993207;28;20251;-69
2024/02/14 00:46:49;;;;;;;6.17;4.67;;;6.40;99.90;;;;;;4994129;28;20208;-69
2024/02/14 00:49:15;;;;;;;6.93;4.60;;;6.40;99.90;;;;;;4992475;28;20175;-69
2024/02/14 00:51:40;;;;;;;6.40;3.63;;;6.50;99.90;;;;;;4974648;28;20571;-70
2024/02/14 00:54:07;;;;;;;8.10;4.30;;;6.50;99.90;;;;;;4974526;28;20436;-69
2024/02/14 00:56:33;;;;;;;4.43;3.93;;;6.70;99.90;;;;;;4973057;28;20182;-70
2024/02/14 00:58:59;;;;;;;4.87;4.20;;;6.70;99.90;;;;;;4974341;28;20493;-69
2024/02/14 01:01:25;;;;;;;6.27;4.13;;;6.80;99.90;;;;;;4992919;28;20194;-70
2024/02/14 01:03:51;;;;;;;4.20;3.63;;;6.90;99.90;;;;;;4993557;28;20201;-70
2024/02/14 01:06:16;;;;;;;5.70;3.50;;;6.90;99.90;;;;;;4993619;28;20419;-69
2024/02/14 01:08:42;;;;;;;4.03;3.67;;;7.00;99.90;;;;;;4993921;28;20204;-70
2024/02/14 01:11:08;;;;;;;5.60;3.37;;;7.10;99.90;;;;;;4993590;28;20184;-70
2024/02/14 01:13:34;;;;;;;4.70;3.00;;;7.20;99.90;;;;;;4994029;28;20209;-72
2024/02/14 01:15:59;;;;;;;4.80;3.67;;;7.40;99.90;;;;;;4993668;28;20415;-69
2024/02/14 01:18:25;;;;;;;4.13;3.23;;;7.50;99.90;;;;;;4993683;28;20224;-70
2024/02/14 01:20:50;;;;;;;4.83;3.40;;;7.70;99.90;;;;;;4979688;28;20175;-70
2024/02/14 01:23:16;;;;;;;3.93;3.00;;;7.60;99.90;;;;;;4973908;28;20267;-70
2024/02/14 01:25:43;;;;;;;3.40;3.07;;;7.70;99.90;;;;;;4974384;28;20204;-70
2024/02/14 01:28:09;;;;;;;3.60;3.00;;;7.80;99.90;;;;;;4973969;28;20168;-69
2024/02/14 01:30:35;;;;;;;5.73;3.33;;;7.90;99.90;;;;;;4985662;28;20405;-69
2024/02/14 01:33:03;;;;;;;4.83;2.83;;;7.90;99.90;;;;;;4993278;28;20192;-70
2024/02/14 01:35:32;;;;;;;3.47;3.17;;;7.90;99.90;;;;;;4993735;28;20418;-69
2024/02/14 01:37:58;;;;;;;4.03;2.93;;;7.90;99.90;;;;;;4993354;28;20414;-69
2024/02/14 01:40:23;;;;;;;4.47;3.13;;;7.90;99.90;;;;;;4982017;28;20420;-70
2024/02/14 01:42:49;;;;;;;5.73;3.40;;;8.10;99.90;;;;;;4973714;28;20232;-70
2024/02/14 01:45:15;;;;;;;3.93;3.40;;;8.10;99.90;;;;;;4974049;28;20173;-70
2024/02/14 01:47:41;;;;;;;4.20;3.63;;;8.00;99.90;;;;;;4973759;28;20164;-70
2024/02/14 01:50:10;;;;;;;5.07;3.10;;;8.00;99.90;;;;;;4984907;28;20533;-70
2024/02/14 01:52:36;;;;;;;4.43;3.27;;;8.00;99.90;;;;;;4997027;28;20812;-69
2024/02/14 01:55:04;;;;;;;4.80;2.60;;;8.10;99.90;;;;;;4996922;28;20411;-69
2024/02/14 01:57:31;;;;;;;3.70;3.37;;;8.20;99.90;;;;;;4996138;28;20169;-69
2024/02/14 01:59:59;;;;;;;4.90;3.43;;;8.00;99.90;;;;;;4988620;28;20415;-69
2024/02/14 02:02:26;;;;;;;4.60;3.37;;;7.80;99.90;;;;;;4977556;28;20431;-69
2024/02/14 02:04:52;;;;;;;4.27;3.40;;;8.00;99.90;;;;;;4977452;28;20458;-69
2024/02/14 02:07:19;;;;;;;5.33;3.33;;;8.10;99.90;;;;;;4977413;28;20412;-69
2024/02/14 02:09:45;;;;;;;4.30;3.30;;;8.30;99.90;;;;;;4980305;28;20660;-69
2024/02/14 02:12:11;;;;;;;3.67;3.20;;;8.40;99.90;;;;;;4996351;28;20967;-69
2024/02/14 02:14:36;;;;;;;4.00;3.00;;;8.50;99.90;;;;;;4996597;28;20418;-69
2024/02/14 02:17:07;;;;;;;2.90;2.63;;;8.60;99.90;;;;;;4990497;28;20181;-69
2024/02/14 02:19:33;;;;;;;3.83;3.03;;;8.60;99.90;;;;;;4979887;28;20157;-69
2024/02/14 02:22:00;;;;;;;3.20;2.90;;;8.60;99.90;;;;;;4996570;28;20798;-69
2024/02/14 02:24:26;;;;;;;4.07;3.07;;;8.70;99.90;;;;;;4996225;28;20461;-69
2024/02/14 02:26:51;;;;;;;3.90;2.90;;;8.50;99.90;;;;;;4996310;28;20402;-69
2024/02/14 02:29:19;;;;;;;4.97;3.30;;;8.40;99.90;;;;;;4995867;28;20172;-69
2024/02/14 02:31:46;;;;;;;4.53;3.00;;;8.30;99.90;;;;;;4976778;28;20625;-70
2024/02/14 02:34:12;;;;;;;4.47;2.80;;;8.30;99.90;;;;;;4976766;28;20417;-69
2024/02/14 02:36:39;;;;;;;5.13;3.50;;;8.30;99.90;;;;;;4976918;28;20408;-70
2024/02/14 02:39:04;;;;;;;4.20;3.20;;;8.20;99.90;;;;;;4976652;28;20169;-70
2024/02/14 02:41:31;;;;;;;11.93;4.20;;;8.10;99.90;;;;;;4994558;28;20814;-70
2024/02/14 02:43:57;;;;;;;4.70;3.40;;;8.10;99.90;;;;;;4995346;28;20203;-69
2024/02/14 02:46:23;;;;;;;3.50;3.10;;;8.30;99.90;;;;;;4995953;28;20404;-70
2024/02/14 02:48:48;;;;;;;3.20;2.83;;;8.50;99.90;;;;;;4995957;28;20503;-70
2024/02/14 02:51:17;;;;;;;4.20;2.83;;;8.50;99.90;;;;;;4995810;28;20173;-70
2024/02/14 02:53:43;;;;;;;5.67;3.50;;;8.60;99.90;;;;;;4996125;28;20223;-69
2024/02/14 02:56:09;;;;;;;3.70;3.30;;;8.50;99.90;;;;;;4995788;28;20420;-70
2024/02/14 02:58:34;;;;;;;3.60;3.20;;;8.30;99.90;;;;;;4995838;28;20176;-70
2024/02/14 03:01:00;;;;;;;4.23;3.03;;;8.20;99.90;;;;;;4994258;28;20176;-70
2024/02/14 03:03:27;;;;;;;4.77;3.77;;;8.50;99.90;;;;;;4995596;28;20203;-70
2024/02/14 03:05:55;;;;;;;4.97;3.00;;;8.60;99.90;;;;;;4995931;28;20654;-69
2024/02/14 03:08:21;;;;;;;4.30;3.80;;;8.60;99.90;;;;;;4995818;28;20545;-70
2024/02/14 03:10:47;;;;;;;3.30;2.80;;;8.70;99.90;;;;;;4983953;28;20420;-70
2024/02/14 03:13:16;;;;;;;3.87;2.77;;;8.60;99.90;;;;;;4975877;28;20509;-70
2024/02/14 03:15:43;;;;;;;8.27;4.60;;;8.70;99.90;;;;;;4976283;28;20169;-70
2024/02/14 03:18:09;;;;;;;5.20;3.20;;;8.50;99.90;;;;;;4976522;28;20518;-69
2024/02/14 03:20:36;;;;;;;6.13;4.13;;;8.30;99.90;;;;;;4986180;28;20474;-70
2024/02/14 03:23:03;;;;;;;8.33;3.17;;;8.30;99.90;;;;;;4995395;28;20463;-70
2024/02/14 03:25:29;;;;;;;4.83;4.10;;;8.30;99.90;;;;;;4994061;28;20775;-70
2024/02/14 03:27:58;;;;;;;3.63;3.13;;;8.30;99.90;;;;;;4995179;28;20461;-70
2024/02/14 03:30:24;;;;;;;4.47;3.07;;;8.30;99.90;;;;;;4987012;28;20416;-70
2024/02/14 03:32:50;;;;;;;5.60;3.67;;;8.40;99.90;;;;;;4975559;28;21028;-70
2024/02/14 03:35:16;;;;;;;4.37;3.63;;;8.30;99.90;;;;;;4974300;28;20197;-70
2024/02/14 03:37:43;;;;;;;5.17;3.70;;;8.20;99.90;;;;;;4975536;28;20756;-70
2024/02/14 03:40:09;;;;;;;3.83;3.30;;;8.20;99.90;;;;;;4982004;28;20400;-70
2024/02/14 03:42:35;;;;;;;8.93;3.80;;;8.00;99.90;;;;;;4995196;28;20422;-70
2024/02/14 03:45:05;;;;;;;4.20;3.63;;;8.10;99.90;;;;;;4994857;28;20498;-70
2024/02/14 03:47:34;;;;;;;3.63;3.10;;;8.20;99.90;;;;;;4994356;28;20423;-70
2024/02/14 03:50:02;;;;;;;5.63;3.30;;;8.10;99.90;;;;;;4986469;28;20519;-70
2024/02/14 03:52:28;;;;;;;4.47;3.23;;;8.20;99.90;;;;;;4975205;28;20445;-70
2024/02/14 03:54:53;;;;;;;5.83;3.90;;;8.30;99.90;;;;;;4975275;28;20470;-69
2024/02/14 03:57:19;;;;;;;3.53;3.23;;;8.30;99.90;;;;;;4975187;28;20633;-70
2024/02/14 03:59:46;;;;;;;3.60;3.10;;;8.20;99.90;;;;;;4977887;28;20196;-70
2024/02/14 04:02:11;;;;;;;4.50;2.83;;;8.30;99.90;;;;;;4994778;28;20196;-70
2024/02/14 04:04:38;;;;;;;4.07;3.43;;;8.20;99.90;;;;;;4993117;28;20459;-70
2024/02/14 04:07:04;;;;;;;3.00;2.70;;;8.30;99.90;;;;;;4994755;28;20172;-70
2024/02/14 04:09:29;;;;;;;3.67;3.20;;;8.30;99.90;;;;;;4993811;28;20777;-70
2024/02/14 04:11:55;;;;;;;3.80;3.13;;;8.30;99.90;;;;;;4974582;28;20304;-70
2024/02/14 04:14:21;;;;;;;4.10;2.50;;;8.40;99.90;;;;;;4974832;28;20662;-70
2024/02/14 04:16:46;;;;;;;4.30;2.90;;;8.40;99.90;;;;;;4975126;28;20529;-70
2024/02/14 04:19:12;;;;;;;2.87;2.57;;;8.40;99.90;;;;;;4974853;28;20181;-69
2024/02/14 04:21:38;;;;;;;4.10;2.47;;;8.50;99.90;;;;;;4989782;28;20668;-69
2024/02/14 04:24:04;;;;;;;2.53;2.30;;;8.40;99.90;;;;;;4974581;28;20457;-69
2024/02/14 04:26:30;;;;;;;3.80;2.30;;;8.40;99.90;;;;;;4974776;28;20172;-69
2024/02/14 04:28:55;;;;;;;2.67;2.23;;;8.60;99.90;;;;;;4974648;28;20168;-70
2024/02/14 04:31:21;;;;;;;4.27;3.00;;;8.60;99.90;;;;;;4989733;28;20606;-69
2024/02/14 04:33:52;;;;;;;3.50;3.10;;;8.70;99.90;;;;;;4993944;28;20176;-69
2024/02/14 04:36:20;;;;;;;3.33;3.00;;;8.50;99.90;;;;;;4994547;28;20169;-70
2024/02/14 04:38:47;;;;;;;3.63;3.03;;;8.60;99.90;;;;;;4994110;28;20420;-70
2024/02/14 04:41:14;;;;;;;6.70;3.33;;;8.60;99.90;;;;;;4978460;28;20925;-70
2024/02/14 04:43:40;;;;;;;4.10;2.90;;;8.70;99.90;;;;;;4974414;28;20515;-70
2024/02/14 04:46:06;;;;;;;3.77;3.10;;;8.80;99.90;;;;;;4973200;28;21159;-70
2024/02/14 04:48:36;;;;;;;4.60;3.37;;;8.70;99.90;;;;;;4974677;28;20186;-70
2024/02/14 04:51:02;;;;;;;7.53;3.50;;;8.70;99.90;;;;;;4986859;28;20522;-70
2024/02/14 04:53:28;;;;;;;4.80;3.10;;;8.80;99.90;;;;;;4993655;28;20870;-70
2024/02/14 04:55:53;;;;;;;3.43;2.97;;;8.80;99.90;;;;;;4993241;28;20269;-70
2024/02/14 04:58:20;;;;;;;3.93;2.57;;;8.90;99.90;;;;;;4994355;28;20180;-70
2024/02/14 05:00:45;;;;;;;4.90;3.30;;;9.00;99.90;;;;;;4984598;28;20185;-71
2024/02/14 05:03:11;;;;;;;4.07;2.77;;;9.00;99.90;;;;;;4974730;28;20457;-69
2024/02/14 05:05:37;;;;;;;3.40;3.10;;;9.00;99.90;;;;;;4974706;28;20647;-70
2024/02/14 05:08:03;;;;;;;3.97;3.10;;;9.00;99.90;;;;;;4974858;28;20172;-72
2024/02/14 05:10:29;;;;;;;4.00;2.50;;;8.80;99.90;;;;;;4982423;28;20421;-70
2024/02/14 05:12:55;;;;;;;9.37;3.47;;;8.70;99.90;;;;;;5016421;23;21017;-69
2024/02/14 05:15:20;;;;;;;3.70;2.60;;;8.70;99.90;;;;;;4993960;28;20638;-71
2024/02/14 05:17:46;;;;;;;4.43;2.77;;;8.80;99.90;;;;;;4994127;28;20461;-70
2024/02/14 05:20:12;;;;;;;4.00;2.83;;;8.70;99.90;;;;;;4993954;28;20167;-70
2024/02/14 05:22:38;;;;;;;4.43;2.83;;;8.70;99.90;;;;;;4990200;28;20680;-71
2024/02/14 05:25:05;;;;;;;4.70;3.30;;;8.70;99.90;;;;;;4978466;28;20228;-71
2024/02/14 05:27:31;;;;;;;3.90;2.53;;;8.80;99.90;;;;;;4977234;28;20774;-70
2024/02/14 05:29:57;;;;;;;3.27;2.70;;;8.80;99.90;;;;;;4978230;28;20407;-71
2024/02/14 05:32:23;;;;;;;8.17;2.90;;;8.90;99.90;;;;;;4977981;28;20417;-71
2024/02/14 05:34:49;;;;;;;3.73;2.80;;;8.90;99.90;;;;;;4978756;28;20415;-71
2024/02/14 05:37:14;;;;;;;6.50;2.77;;;8.90;99.90;;;;;;4976939;28;20409;-72
2024/02/14 05:39:40;;;;;;;5.83;3.17;;;9.00;99.90;;;;;;4978754;28;20171;-71
2024/02/14 05:42:06;;;;;;;5.50;3.00;;;9.10;99.90;;;;;;4977537;28;20555;-70
2024/02/14 05:44:31;;;;;;;2.93;2.37;;;9.10;99.90;;;;;;4961025;28;20693;-71
2024/02/14 05:46:57;;;;;;;3.57;2.70;;;9.10;99.90;;;;;;4958435;28;20463;-71
2024/02/14 05:49:24;;;;;;;2.87;2.60;;;9.00;99.90;;;;;;4958862;28;20169;-71
2024/02/14 05:51:52;;;;;;;7.73;3.13;;;9.00;99.90;;;;;;4958759;28;20194;-71
2024/02/14 05:54:18;;;;;;;2.60;2.17;;;9.10;99.90;;;;;;4975047;28;20443;-70
2024/02/14 05:56:43;;;;;;;6.00;2.70;;;9.10;99.90;;;;;;4977840;28;20419;-71
2024/02/14 05:59:10;;;;;;;4.07;3.23;;;9.10;99.90;;;;;;4977785;28;20185;-71
2024/02/14 06:01:35;;;;;;;5.67;3.63;;;9.00;99.90;;;;;;4977659;28;20188;-72
2024/02/14 06:04:01;;;;;;;4.20;3.80;;;8.70;99.90;;;;;;4960812;28;20457;-71
2024/02/14 06:06:26;;;;;;;5.90;4.07;;;8.50;99.90;;;;;;4957045;29;20180;-71
2024/02/14 06:08:52;;;;;;;3.93;3.30;;;8.30;99.90;;;;;;4958583;28;20545;-71
2024/02/14 06:11:20;;;;;;;4.30;3.57;;;8.40;99.90;;;;;;4958530;28;20265;-72
2024/02/14 06:13:48;;;;;;;5.00;3.80;;;8.30;99.90;;;;;;4971458;28;20220;-71
2024/02/14 06:16:13;;;;;;;4.50;3.83;;;8.10;99.90;;;;;;4975586;28;20899;-72
2024/02/14 06:18:40;;;;;;;5.07;3.33;;;8.00;99.90;;;;;;4958842;28;20471;-70
2024/02/14 06:21:06;;;;;;;3.43;3.13;;;8.20;99.90;;;;;;4958083;28;20175;-70
2024/02/14 06:23:31;;;;;;;5.30;4.03;;;8.40;99.90;;;;;;4969403;28;20807;-72
2024/02/14 06:25:58;;;;;;;4.53;3.30;;;8.30;99.90;;;;;;4977162;28;20783;-70
2024/02/14 06:28:24;;;;;;;6.77;3.83;;;8.30;99.90;;;;;;4977124;28;20630;-70
2024/02/14 06:30:49;;;;;;;4.40;3.00;;;8.30;99.90;;;;;;4977103;28;20408;-70
2024/02/14 06:33:15;;;;;;;6.03;3.57;;;8.30;99.90;;;;;;4967795;28;20209;-71
2024/02/14 06:35:40;;;;;;;3.37;3.07;;;8.40;99.90;;;;;;4957046;28;20272;-71
2024/02/14 06:38:06;;;;;;;3.90;2.70;;;8.40;99.90;;;;;;4957404;28;20267;-70
2024/02/14 06:40:32;;;;;;;4.00;3.17;;;8.20;99.90;;;;;;4957603;28;20202;-71
2024/02/14 06:42:59;;;;;;;3.97;2.60;;;8.40;99.90;;;;;;4963792;28;20189;-71
2024/02/14 06:45:26;;;;;;;3.00;2.53;;;8.30;99.90;;;;;;4975626;28;20421;-71
2024/02/14 06:47:51;;;;;;;6.50;2.30;;;8.50;99.90;;;;;;4976242;28;20743;-71
2024/02/14 06:50:17;;;;;;;4.27;2.37;;;8.50;99.90;;;;;;4976660;28;20464;-71
2024/02/14 06:52:42;;;;;;;3.20;2.20;;;8.50;99.90;;;;;;4971031;28;20191;-71
2024/02/14 06:55:08;;;;;;;3.20;2.30;;;8.70;99.90;;;;;;4957278;28;20544;-71
2024/02/14 06:57:34;;;;;;;4.97;2.53;;;8.70;99.90;;;;;;4957230;28;20175;-70
2024/02/14 06:59:59;;;;;;;4.40;2.97;;;8.60;99.90;;;;;;4956066;28;20170;-71
2024/02/14 07:02:27;;;;;;;7.40;2.53;;;8.70;99.90;;;;;;4958705;28;20195;-71
2024/02/14 07:04:54;;;;;;;2.27;1.60;;;8.70;99.90;;;;;;4976700;28;20567;-71
2024/02/14 07:07:20;;;;;;;3.47;2.63;;;8.80;99.90;;;;;;4975203;28;20547;-70
2024/02/14 07:09:46;;;;;;;2.57;2.20;;;8.90;99.90;;;;;;4976280;28;20440;-72
2024/02/14 07:12:11;;;;;;;4.10;2.10;;;8.90;99.90;;;;;;4983470;28;20180;-71
2024/02/14 07:14:37;;;;;;;4.60;2.57;;;9.10;99.90;;;;;;4986110;28;20456;-71
2024/02/14 07:17:03;;;;;;;4.17;2.37;;;9.00;99.90;;;;;;4982132;28;20193;-73
2024/02/14 07:19:28;;;;;;;3.33;2.17;;;8.90;99.90;;;;;;4977051;28;20179;-72
2024/02/14 07:21:54;;;;;;;4.20;2.50;;;9.00;99.90;;;;;;4975127;28;20966;-72
2024/02/14 07:24:20;;;;;;;9.00;2.33;;;9.20;99.90;;;;;;4976410;28;20665;-72
2024/02/14 07:26:45;;;;;;;4.43;1.90;;;9.40;99.90;;;;;;4974996;28;20706;-72
2024/02/14 07:29:11;;;;;;;4.63;2.57;;;9.40;99.90;;;;;;4976653;28;20552;-72
2024/02/14 07:31:37;;;;;;;3.50;2.00;;;9.30;99.90;;;;;;4974678;28;20300;-73
2024/02/14 07:34:05;;;;;;;3.33;2.10;;;9.30;99.90;;;;;;4984027;28;20196;-71
2024/02/14 07:36:32;;;;;;;3.77;1.90;;;9.40;99.90;;;;;;4995499;28;20180;-71
2024/02/14 07:38:57;;;;;;;3.37;2.07;;;9.40;99.90;;;;;;4995445;28;20415;-71
2024/02/14 07:41:23;;;;;;;4.17;2.43;;;9.50;99.90;;;;;;4995098;28;20771;-70
2024/02/14 07:43:49;;;;;;;3.43;2.20;;;9.60;99.90;;;;;;4982329;28;20240;-73
2024/02/14 07:46:22;;;;;;;6.37;2.70;;;9.60;99.90;;;;;;4976230;28;20494;-72
2024/02/14 07:48:48;;;;;;;3.00;2.30;;;9.70;99.90;;;;;;4976401;28;20184;-71
2024/02/14 07:51:14;;;;;;;12.00;3.20;;;9.70;99.90;;;;;;4975975;28;20430;-72
2024/02/14 07:53:39;;;;;;;8.13;2.70;;;9.80;99.90;;;;;;4966071;28;20434;-69
2024/02/14 07:56:05;;;;;;;4.20;2.60;;;10.00;99.90;;;;;;4957130;28;20175;-71
2024/02/14 07:58:31;;;;;;;4.07;2.63;;;10.30;99.90;;;;;;4956726;28;20171;-71
2024/02/14 08:00:56;;;;;;;6.40;2.43;;;10.50;99.90;;;;;;4956825;28;20640;-71
2024/02/14 08:03:22;;;;;;;5.13;2.80;;;10.70;99.90;;;;;;4965029;28;20277;-70
2024/02/14 08:05:48;;;;;;;4.20;2.27;;;10.70;99.90;;;;;;4975634;28;20178;-71
2024/02/14 08:08:13;;;;;;;4.73;2.47;;;10.70;99.90;;;;;;4975912;28;20175;-71
2024/02/14 08:10:39;;;;;;;3.70;2.80;;;10.90;99.90;;;;;;4975611;28;20776;-71
2024/02/14 08:13:04;;;;;;;3.60;2.57;;;11.10;99.90;;;;;;4967780;28;20221;-70
2024/02/14 08:15:30;;;;;;;3.23;2.40;;;11.30;99.90;;;;;;4956262;28;20263;-71
2024/02/14 08:17:56;;;;;;;5.13;2.83;;;11.40;99.90;;;;;;4956019;28;20170;-72
2024/02/14 08:20:22;;;;;;;3.83;2.80;;;11.50;99.90;;;;;;4956245;28;20853;-73
2024/02/14 08:22:49;;;;;;;3.77;2.80;;;11.50;99.90;;;;;;4958233;28;20210;-70
2024/02/14 08:25:15;;;;;;;5.43;3.23;;;11.60;99.90;;;;;;4975325;28;20823;-71
2024/02/14 08:27:41;;;;;;;5.60;3.07;;;11.70;99.90;;;;;;4966223;28;20444;-71
2024/02/14 08:30:08;;;;;;;3.80;2.67;;;11.70;99.90;;;;;;4955908;28;20449;-70
2024/02/14 08:32:34;;;;;;;3.77;2.90;;;11.80;99.90;;;;;;4957439;28;20186;-71
2024/02/14 08:35:01;;;;;;;2.73;2.03;;;11.60;99.90;;;;;;4974752;28;20425;-70
2024/02/14 08:37:27;;;;;;;5.50;2.60;;;11.40;99.90;;;;;;4973547;28;20418;-71
2024/02/14 08:39:52;;;;;;;6.70;2.80;;;11.00;99.90;;;;;;4974806;28;20424;-72
2024/02/14 08:42:18;;;;;;;4.77;2.60;;;10.90;99.90;;;;;;4974980;28;20923;-70
2024/02/14 08:44:44;;;;;;;5.53;2.73;;;11.00;99.90;;;;;;4955760;28;20282;-70
2024/02/14 08:47:10;;;;;;;4.10;2.90;;;11.50;99.90;;;;;;4955671;28;20194;-68
2024/02/14 08:49:36;;;;;;;5.57;2.47;;;11.70;99.90;;;;;;4965682;28;20444;-69
2024/02/14 08:52:01;;;;;;;7.20;3.40;;;11.90;99.90;;;;;;4973497;28;20420;-69
2024/02/14 08:54:28;;;;;;;3.70;2.30;;;12.10;99.90;;;;;;4958115;28;20183;-70
2024/02/14 08:56:55;;;;;;;2.30;2.03;;;12.20;99.90;;;;;;4955188;28;20168;-71
2024/02/14 08:59:21;;;;;;;3.67;1.67;;;12.10;99.90;;;;;;4955158;28;20417;-68
2024/02/14 09:01:48;;;;;;;5.40;3.17;;;12.00;99.90;;;;;;4955401;28;20452;-67
2024/02/14 09:04:13;;;;;;;3.27;2.60;;;11.90;99.90;;;;;;4969479;28;20267;-69
2024/02/14 09:06:40;;;;;;;2.93;1.83;;;12.30;99.90;;;;;;4974290;28;20406;-69
2024/02/14 09:09:06;;;;;;;3.33;2.50;;;12.20;99.90;;;;;;4974516;28;20172;-69
2024/02/14 09:11:32;;;;;;;3.50;2.10;;;12.40;99.90;;;;;;4974604;28;20408;-69
2024/02/14 09:14:04;;;;;;;4.97;2.80;;;12.30;99.90;;;;;;4974091;28;20973;-69
2024/02/14 09:16:30;;;;;;;4.50;3.23;;;12.30;99.90;;;;;;4974609;28;20584;-69
2024/02/14 09:18:56;;;;;;;5.60;2.07;;;12.30;99.90;;;;;;4974538;28;20763;-70
2024/02/14 09:21:22;;;;;;;4.77;2.13;;;12.20;99.90;;;;;;4974328;28;20410;-71
2024/02/14 09:23:47;;;;;;;4.87;2.27;;;12.00;99.90;;;;;;4963254;28;20643;-69
2024/02/14 09:26:13;;;;;;;2.17;1.53;;;12.00;99.90;;;;;;4955008;28;20210;-69
2024/02/14 09:28:42;;;;;;;9.40;2.60;;;12.30;99.90;;;;;;4955064;28;20215;-69
2024/02/14 09:31:10;;;;;;;3.20;1.50;;;12.40;99.90;;;;;;4953634;28;20174;-69
2024/02/14 09:33:36;;;;;;;2.90;1.90;;;12.40;99.90;;;;;;4963888;28;20441;-70
2024/02/14 09:36:03;;;;;;;2.07;1.63;;;12.60;99.90;;;;;;4974232;28;20414;-69
2024/02/14 09:38:29;;;;;;;2.53;1.37;;;12.60;99.90;;;;;;4974454;28;20467;-68
2024/02/14 09:41:03;;;;;;;3.63;1.87;;;12.60;99.90;;;;;;4974833;28;20418;-69
2024/02/14 09:43:38;;;;;;;2.47;1.50;;;12.70;99.90;;;;;;4966494;28;20989;-69
2024/02/14 09:46:04;;;;;;;2.60;1.53;;;12.50;99.90;;;;;;4955518;28;20525;-68
2024/02/14 09:48:30;;;;;;;1.83;1.43;;;12.70;99.90;;;;;;4955251;28;20424;-68
2024/02/14 09:50:56;;;;;;;3.00;1.57;;;12.70;99.90;;;;;;4954815;28;20977;-69
2024/02/14 09:53:23;;;;;;;3.63;1.93;;;12.80;99.90;;;;;;4961506;28;20435;-70
2024/02/14 09:55:50;;;;;;;3.20;1.87;;;13.00;99.90;;;;;;4974026;28;20412;-70
2024/02/14 09:58:17;;;;;;;2.27;1.50;;;12.80;99.90;;;;;;4974344;28;20409;-69
2024/02/14 10:00:42;;;;;;;5.30;1.93;;;12.80;99.90;;;;;;4974357;28;20406;-69
2024/02/14 10:03:08;;;;;;;2.60;1.93;;;12.80;99.90;;;;;;4967489;28;20510;-69
2024/02/14 10:05:34;;;;;;;2.27;2.07;;;12.80;99.90;;;;;;4953416;28;20181;-69
2024/02/14 10:08:01;;;;;;;3.60;1.73;;;12.90;99.90;;;;;;4953292;29;20412;-70
2024/02/14 10:10:27;;;;;;;5.40;2.20;;;12.60;99.90;;;;;;4956998;28;20173;-70
2024/02/14 10:12:55;;;;;;;1.97;1.57;;;12.80;99.90;;;;;;4960868;28;20586;-69
2024/02/14 10:15:21;;;;;;;2.10;1.60;;;13.10;99.90;;;;;;4977382;28;20862;-69
2024/02/14 10:17:47;;;;;;;3.40;1.57;;;13.30;99.90;;;;;;4977661;28;20483;-68
2024/02/14 10:20:17;;;;;;;2.20;1.67;;;13.40;99.90;;;;;;4977378;28;20165;-70
2024/02/14 10:22:44;;;;;;;3.20;2.10;;;13.80;99.90;;;;;;4975891;28;20574;-68
2024/02/14 10:25:10;;;;;;;2.67;1.90;;;13.80;99.90;;;;;;4957630;28;20795;-69
2024/02/14 10:27:39;;;;;;;3.50;1.43;;;13.50;99.90;;;;;;4957942;28;20410;-69
2024/02/14 10:30:09;;;;;;;2.70;1.10;;;13.20;99.90;;;;;;4957937;28;20476;-70
2024/02/14 10:32:36;;;;;;;3.97;1.67;;;13.40;99.90;;;;;;4957890;28;20424;-70
2024/02/14 10:35:08;;;;;;;5.43;2.00;;;13.30;99.90;;;;;;4961495;28;20442;-69
2024/02/14 10:37:35;;;;;;;2.00;1.20;;;13.30;99.90;;;;;;4957844;28;20747;-70
2024/02/14 10:40:03;;;;;;;1.60;1.20;;;13.30;99.90;;;;;;4957981;28;20410;-70
2024/02/14 10:42:28;;;;;;;1.50;1.00;;;13.40;99.90;;;;;;4958062;28;20437;-68
2024/02/14 10:44:55;;;;;;;2.03;1.40;;;13.60;99.90;;;;;;4975815;28;20618;-70
2024/02/14 10:47:24;;;;;;;1.33;1.10;;;13.70;99.90;;;;;;4976984;28;20540;-69
2024/02/14 10:49:51;;;;;;;2.30;1.40;;;14.00;99.90;;;;;;4976603;28;20799;-70
2024/02/14 10:52:18;;;;;;;1.70;1.37;;;13.90;99.90;;;;;;4976551;28;20420;-69
2024/02/14 10:54:52;;;;;;;1.97;1.60;;;14.10;99.90;;;;;;4974192;28;20496;-69
2024/02/14 10:57:20;;;;;;;1.80;1.40;;;14.00;99.90;;;;;;4976612;28;20391;-70
2024/02/14 10:59:48;;;;;;;1.60;1.50;;;14.30;99.90;;;;;;4977155;28;20407;-69
2024/02/14 11:02:15;;;;;;;1.97;1.30;;;14.50;99.90;;;;;;4976501;28;20480;-71
2024/02/14 11:04:40;;;;;;;2.40;1.40;;;14.80;99.90;;;;;;4960137;28;20444;-69
2024/02/14 11:07:10;;;;;;;3.87;1.40;;;15.10;99.90;;;;;;4955854;28;21005;-69
2024/02/14 11:09:38;;;;;;;3.63;1.33;;;15.30;99.90;;;;;;4957343;28;20180;-70
2024/02/14 11:12:08;;;;;;;1.30;1.20;;;15.00;99.90;;;;;;4957456;28;20407;-68
2024/02/14 11:14:35;;;;;;;5.23;1.43;;;14.90;99.90;;;;;;5047158;23;21010;-69
2024/02/14 11:17:02;;;;;;;1.80;1.03;;;14.70;99.90;;;;;;5034988;28;20920;-68
2024/02/14 11:19:35;;;;;;;1.40;1.13;;;14.80;99.90;;;;;;5034806;28;20497;-69
2024/02/14 11:22:17;;;;;;;1.60;1.40;;;14.70;99.90;;;;;;5035226;28;20456;-69
2024/02/14 11:24:46;;;;;;;2.80;1.27;;;14.30;99.90;;;;;;5034272;28;21042;-69
2024/02/14 11:27:11;;;;;;;3.63;1.40;;;14.30;99.90;;;;;;5034550;28;20414;-69
2024/02/14 11:29:42;;;;;;;3.10;1.37;;;14.50;99.90;;;;;;5035369;28;20420;-69
2024/02/14 11:32:09;;;;;;;2.17;1.00;;;14.60;99.90;;;;;;5034921;28;20279;-70
2024/02/14 11:34:35;;;;;;;2.70;1.10;;;14.30;99.90;;;;;;5034164;28;20954;-69
2024/02/14 11:37:00;;;;;;;1.67;1.00;;;14.00;99.90;;;;;;5034554;28;20455;-69
2024/02/14 11:39:26;;;;;;;1.47;1.20;;;14.00;99.90;;;;;;5034022;28;20419;-70
2024/02/14 11:41:52;;;;;;;1.30;0.93;;;14.10;99.90;;;;;;5034190;28;20177;-70
2024/02/14 11:44:21;;;;;;;2.07;1.10;;;13.90;99.90;;;;;;5034322;28;20731;-70
2024/02/14 11:46:47;;;;;;;1.03;0.83;;;14.10;99.90;;;;;;5034521;28;20178;-69
2024/02/14 11:49:13;;;;;;;2.43;1.10;;;14.00;99.90;;;;;;5033485;28;20482;-71
2024/02/14 11:51:40;;;;;;;3.43;1.40;;;14.00;99.90;;;;;;5033950;28;20163;-69
2024/02/14 11:54:06;;;;;;;2.00;0.90;;;13.90;99.90;;;;;;5034249;28;20195;-70
2024/02/14 11:56:36;;;;;;;1.30;1.00;;;14.10;99.90;;;;;;5033883;28;20415;-71
2024/02/14 11:59:03;;;;;;;3.80;1.00;;;14.20;99.90;;;;;;5034223;28;20855;-71
2024/02/14 12:01:31;;;;;;;1.87;1.23;;;14.20;99.90;;;;;;5014198;28;20470;-71
2024/02/14 12:03:58;;;;;;;3.70;0.87;;;14.30;99.90;;;;;;5014413;28;20444;-71
2024/02/14 12:06:24;;;;;;;2.50;1.23;;;14.60;99.90;;;;;;5014951;28;20416;-71
2024/02/14 12:08:50;;;;;;;4.80;1.10;;;14.60;99.90;;;;;;5014139;28;20402;-71
2024/02/14 12:11:17;;;;;;;1.67;1.37;;;14.70;99.90;;;;;;5031856;28;20179;-71
2024/02/14 12:13:43;;;;;;;2.47;1.30;;;14.40;99.90;;;;;;5033330;28;20446;-72
2024/02/14 12:16:10;;;;;;;1.13;0.90;;;14.60;99.90;;;;;;5033635;28;20412;-71
2024/02/14 12:18:36;;;;;;;1.77;1.17;;;14.80;99.90;;;;;;5033388;28;20415;-72
2024/02/14 12:21:07;;;;;;;1.73;1.10;;;15.00;99.90;;;;;;5035980;28;20410;-70
2024/02/14 12:23:33;;;;;;;1.43;1.00;;;15.20;99.90;;;;;;5033448;28;20693;-71
2024/02/14 12:26:02;;;;;;;1.40;0.90;;;15.60;99.90;;;;;;5033542;28;20410;-72
2024/02/14 12:28:30;;;;;;;2.50;0.90;;;15.50;99.90;;;;;;5033800;28;20289;-72
2024/02/14 12:30:57;;;;;;;1.77;1.00;;;15.50;99.90;;;;;;5033300;28;20779;-72
2024/02/14 12:33:24;;;;;;;2.20;1.10;;;15.60;99.90;;;;;;5033055;28;20460;-71
2024/02/14 12:35:51;;;;;;;2.20;0.90;;;15.60;99.90;;;;;;5033476;28;20463;-72
2024/02/14 12:38:18;;;;;;;2.67;1.00;;;15.40;99.90;;;;;;5033467;28;20406;-71
2024/02/14 12:40:44;;;;;;;1.50;0.83;;;15.40;99.90;;;;;;5033594;28;20807;-70
2024/02/14 12:43:11;;;;;;;3.63;0.80;;;15.40;99.90;;;;;;5033065;28;20472;-70
2024/02/14 12:45:41;;;;;;;2.50;1.03;;;15.40;99.90;;;;;;5033025;28;20901;-69
2024/02/14 12:48:11;;;;;;;1.63;1.20;;;15.70;99.90;;;;;;5032979;28;20414;-69